Aviation Digital Data Service (ADDS)

Output produced by METARs form (1700 UTC 16 June 2019)
found at http://www.aviationweather.gov/metar/data/
 
METAR text: LFRJ 161630Z AUTO 22012KT 9999 SCT023 BKN029 OVC035 15/12 Q1019
Conditions at: LFRJ (LANDIVISIAU (NAV, FR) observed 1630 UTC 16 June 2019
Temperature: 15.0°C (59°F)
Dewpoint: 12.0°C (54°F) [RH = 82%]
Pressure (altimeter): 30.09 inches Hg (1019.0 mb)
Winds: from the SW (220 degrees) at 14 MPH (12 knots; 6.2 m/s)
Visibility: 6 or more miles (10+ km)
Ceiling: 2900 feet AGL
Clouds: scattered clouds at 2300 feet AGL
broken clouds at 2900 feet AGL
overcast cloud deck at 3500 feet AGL
Weather: no significant weather observed at this time

METAR text: LFRJ 161600Z AUTO 21015KT 9999 BKN027 OVC036 15/11 Q1019
Conditions at: LFRJ (LANDIVISIAU (NAV, FR) observed 1600 UTC 16 June 2019
Temperature: 15.0°C (59°F)
Dewpoint: 11.0°C (52°F) [RH = 77%]
Pressure (altimeter): 30.09 inches Hg (1019.0 mb)
Winds: from the SSW (210 degrees) at 17 MPH (15 knots; 7.7 m/s)
Visibility: 6 or more miles (10+ km)
Ceiling: 2700 feet AGL
Clouds: broken clouds at 2700 feet AGL
overcast cloud deck at 3600 feet AGL
Weather: no significant weather observed at this time

METAR text: LFRJ 161530Z AUTO 22014KT 9999 FEW028 OVC034 16/11 Q1019
Conditions at: LFRJ (LANDIVISIAU (NAV, FR) observed 1530 UTC 16 June 2019
Temperature: 16.0°C (61°F)
Dewpoint: 11.0°C (52°F) [RH = 72%]
Pressure (altimeter): 30.09 inches Hg (1019.0 mb)
Winds: from the SW (220 degrees) at 16 MPH (14 knots; 7.2 m/s)
Visibility: 6 or more miles (10+ km)
Ceiling: 3400 feet AGL
Clouds: few clouds at 2800 feet AGL
overcast cloud deck at 3400 feet AGL
Weather: no significant weather observed at this time

METAR text: LFRJ 161500Z AUTO 23016KT 9999 BKN027 BKN034 BKN043 16/11 Q1019
Conditions at: LFRJ (LANDIVISIAU (NAV, FR) observed 1500 UTC 16 June 2019
Temperature: 16.0°C (61°F)
Dewpoint: 11.0°C (52°F) [RH = 72%]
Pressure (altimeter): 30.09 inches Hg (1019.0 mb)
Winds: from the SW (230 degrees) at 18 MPH (16 knots; 8.2 m/s)
Visibility: 6 or more miles (10+ km)
Ceiling: 2700 feet AGL
Clouds: broken clouds at 2700 feet AGL
broken clouds at 3400 feet AGL
broken clouds at 4300 feet AGL
Weather: no significant weather observed at this time

METAR text: LFRJ 161430Z AUTO 22016KT 9999 SCT028 OVC041 17/12 Q1019
Conditions at: LFRJ (LANDIVISIAU (NAV, FR) observed 1430 UTC 16 June 2019
Temperature: 17.0°C (63°F)
Dewpoint: 12.0°C (54°F) [RH = 72%]
Pressure (altimeter): 30.09 inches Hg (1019.0 mb)
Winds: from the SW (220 degrees) at 18 MPH (16 knots; 8.2 m/s)
Visibility: 6 or more miles (10+ km)
Ceiling: 4100 feet AGL
Clouds: scattered clouds at 2800 feet AGL
overcast cloud deck at 4100 feet AGL
Weather: no significant weather observed at this time

METAR text: LFRJ 161400Z AUTO 24016KT 9999 BKN028 OVC041 17/11 Q1019
Conditions at: LFRJ (LANDIVISIAU (NAV, FR) observed 1400 UTC 16 June 2019
Temperature: 17.0°C (63°F)
Dewpoint: 11.0°C (52°F) [RH = 68%]
Pressure (altimeter): 30.09 inches Hg (1019.0 mb)
Winds: from the WSW (240 degrees) at 18 MPH (16 knots; 8.2 m/s)
Visibility: 6 or more miles (10+ km)
Ceiling: 2800 feet AGL
Clouds: broken clouds at 2800 feet AGL
overcast cloud deck at 4100 feet AGL
Weather: no significant weather observed at this time

METAR text: LFRJ 161330Z AUTO 23015KT 9999 SCT025 BKN030 OVC038 17/11 Q1019
Conditions at: LFRJ (LANDIVISIAU (NAV, FR) observed 1330 UTC 16 June 2019
Temperature: 17.0°C (63°F)
Dewpoint: 11.0°C (52°F) [RH = 68%]
Pressure (altimeter): 30.09 inches Hg (1019.0 mb)
Winds: from the SW (230 degrees) at 17 MPH (15 knots; 7.7 m/s)
Visibility: 6 or more miles (10+ km)
Ceiling: 3000 feet AGL
Clouds: scattered clouds at 2500 feet AGL
broken clouds at 3000 feet AGL
overcast cloud deck at 3800 feet AGL
Weather: no significant weather observed at this time

METAR text: LFRJ 161300Z AUTO 23014KT 190V250 9999 BKN027 BKN032 OVC042 17/11 Q1019
Conditions at: LFRJ (LANDIVISIAU (NAV, FR) observed 1300 UTC 16 June 2019
Temperature: 17.0°C (63°F)
Dewpoint: 11.0°C (52°F) [RH = 68%]
Pressure (altimeter): 30.09 inches Hg (1019.0 mb)
Winds: from the SW (230 degrees) at 16 MPH (14 knots; 7.2 m/s)
Visibility: 6 or more miles (10+ km)
Ceiling: 2700 feet AGL
Clouds: broken clouds at 2700 feet AGL
broken clouds at 3200 feet AGL
overcast cloud deck at 4200 feet AGL
Weather: no significant weather observed at this time

METAR text: LFRJ 161230Z AUTO 21017KT 9999 FEW026 SCT032 OVC041 17/11 Q1019
Conditions at: LFRJ (LANDIVISIAU (NAV, FR) observed 1230 UTC 16 June 2019
Temperature: 17.0°C (63°F)
Dewpoint: 11.0°C (52°F) [RH = 68%]
Pressure (altimeter): 30.09 inches Hg (1019.0 mb)
Winds: from the SSW (210 degrees) at 20 MPH (17 knots; 8.7 m/s)
Visibility: 6 or more miles (10+ km)
Ceiling: 4100 feet AGL
Clouds: few clouds at 2600 feet AGL
scattered clouds at 3200 feet AGL
overcast cloud deck at 4100 feet AGL
Weather: no significant weather observed at this time

METAR text: LFRJ 161200Z AUTO 23015KT 9999 FEW018 BKN023 BKN029 17/12 Q1019
Conditions at: LFRJ (LANDIVISIAU (NAV, FR) observed 1200 UTC 16 June 2019
Temperature: 17.0°C (63°F)
Dewpoint: 12.0°C (54°F) [RH = 72%]
Pressure (altimeter): 30.09 inches Hg (1019.0 mb)
Winds: from the SW (230 degrees) at 17 MPH (15 knots; 7.7 m/s)
Visibility: 6 or more miles (10+ km)
Ceiling: 2300 feet AGL
Clouds: few clouds at 1800 feet AGL
broken clouds at 2300 feet AGL
broken clouds at 2900 feet AGL
Weather: no significant weather observed at this time

METAR text: LFRJ 161130Z AUTO 22017KT 9999 BKN017 OVC042 16/12 Q1019
Conditions at: LFRJ (LANDIVISIAU (NAV, FR) observed 1130 UTC 16 June 2019
Temperature: 16.0°C (61°F)
Dewpoint: 12.0°C (54°F) [RH = 77%]
Pressure (altimeter): 30.09 inches Hg (1019.0 mb)
Winds: from the SW (220 degrees) at 20 MPH (17 knots; 8.7 m/s)
Visibility: 6 or more miles (10+ km)
Ceiling: 1700 feet AGL
Clouds: broken clouds at 1700 feet AGL
overcast cloud deck at 4200 feet AGL
Weather: no significant weather observed at this time

METAR text: LFRJ 161100Z AUTO 22015KT 9999 SCT015 BKN020 OVC038 16/13 Q1019
Conditions at: LFRJ (LANDIVISIAU (NAV, FR) observed 1100 UTC 16 June 2019
Temperature: 16.0°C (61°F)
Dewpoint: 13.0°C (55°F) [RH = 82%]
Pressure (altimeter): 30.09 inches Hg (1019.0 mb)
Winds: from the SW (220 degrees) at 17 MPH (15 knots; 7.7 m/s)
Visibility: 6 or more miles (10+ km)
Ceiling: 2000 feet AGL
Clouds: scattered clouds at 1500 feet AGL
broken clouds at 2000 feet AGL
overcast cloud deck at 3800 feet AGL
Weather: no significant weather observed at this time

METAR text: LFRJ 161030Z AUTO 21014KT 9999 BKN013 BKN021 OVC039 16/13 Q1019
Conditions at: LFRJ (LANDIVISIAU (NAV, FR) observed 1030 UTC 16 June 2019
Temperature: 16.0°C (61°F)
Dewpoint: 13.0°C (55°F) [RH = 82%]
Pressure (altimeter): 30.09 inches Hg (1019.0 mb)
Winds: from the SSW (210 degrees) at 16 MPH (14 knots; 7.2 m/s)
Visibility: 6 or more miles (10+ km)
Ceiling: 1300 feet AGL
Clouds: broken clouds at 1300 feet AGL
broken clouds at 2100 feet AGL
overcast cloud deck at 3900 feet AGL
Weather: no significant weather observed at this time

METAR text: LFRJ 161000Z AUTO 22012KT 9999 BKN017 BKN025 OVC042 16/13 Q1019
Conditions at: LFRJ (LANDIVISIAU (NAV, FR) observed 1000 UTC 16 June 2019
Temperature: 16.0°C (61°F)
Dewpoint: 13.0°C (55°F) [RH = 82%]
Pressure (altimeter): 30.09 inches Hg (1019.0 mb)
Winds: from the SW (220 degrees) at 14 MPH (12 knots; 6.2 m/s)
Visibility: 6 or more miles (10+ km)
Ceiling: 1700 feet AGL
Clouds: broken clouds at 1700 feet AGL
broken clouds at 2500 feet AGL
overcast cloud deck at 4200 feet AGL
Weather: no significant weather observed at this time

METAR text: LFRJ 160930Z AUTO 22013KT 9999 SCT014 SCT020 OVC043 16/12 Q1019
Conditions at: LFRJ (LANDIVISIAU (NAV, FR) observed 0930 UTC 16 June 2019
Temperature: 16.0°C (61°F)
Dewpoint: 12.0°C (54°F) [RH = 77%]
Pressure (altimeter): 30.09 inches Hg (1019.0 mb)
Winds: from the SW (220 degrees) at 15 MPH (13 knots; 6.7 m/s)
Visibility: 6 or more miles (10+ km)
Ceiling: 4300 feet AGL
Clouds: scattered clouds at 1400 feet AGL
scattered clouds at 2000 feet AGL
overcast cloud deck at 4300 feet AGL
Weather: no significant weather observed at this time

METAR text: LFRJ 160900Z AUTO 23015KT 9999 BKN014 BKN020 BKN031 15/13 Q1019
Conditions at: LFRJ (LANDIVISIAU (NAV, FR) observed 0900 UTC 16 June 2019
Temperature: 15.0°C (59°F)
Dewpoint: 13.0°C (55°F) [RH = 88%]
Pressure (altimeter): 30.09 inches Hg (1019.0 mb)
Winds: from the SW (230 degrees) at 17 MPH (15 knots; 7.7 m/s)
Visibility: 6 or more miles (10+ km)
Ceiling: 1400 feet AGL
Clouds: broken clouds at 1400 feet AGL
broken clouds at 2000 feet AGL
broken clouds at 3100 feet AGL
Weather: no significant weather observed at this time

METAR text: LFRJ 160830Z AUTO 22015KT 9999 BKN014 OVC023 15/13 Q1018
Conditions at: LFRJ (LANDIVISIAU (NAV, FR) observed 0830 UTC 16 June 2019
Temperature: 15.0°C (59°F)
Dewpoint: 13.0°C (55°F) [RH = 88%]
Pressure (altimeter): 30.06 inches Hg (1018.0 mb)
Winds: from the SW (220 degrees) at 17 MPH (15 knots; 7.7 m/s)
Visibility: 6 or more miles (10+ km)
Ceiling: 1400 feet AGL
Clouds: broken clouds at 1400 feet AGL
overcast cloud deck at 2300 feet AGL
Weather: no significant weather observed at this time

METAR text: LFRJ 160800Z AUTO 22012KT 9999 BKN015 OVC020 15/12 Q1018
Conditions at: LFRJ (LANDIVISIAU (NAV, FR) observed 0800 UTC 16 June 2019
Temperature: 15.0°C (59°F)
Dewpoint: 12.0°C (54°F) [RH = 82%]
Pressure (altimeter): 30.06 inches Hg (1018.0 mb)
Winds: from the SW (220 degrees) at 14 MPH (12 knots; 6.2 m/s)
Visibility: 6 or more miles (10+ km)
Ceiling: 1500 feet AGL
Clouds: broken clouds at 1500 feet AGL
overcast cloud deck at 2000 feet AGL
Weather: no significant weather observed at this time

METAR text: LFRJ 160730Z AUTO 22011KT 9999 SCT015 BKN040 OVC088 15/12 Q1018
Conditions at: LFRJ (LANDIVISIAU (NAV, FR) observed 0730 UTC 16 June 2019
Temperature: 15.0°C (59°F)
Dewpoint: 12.0°C (54°F) [RH = 82%]
Pressure (altimeter): 30.06 inches Hg (1018.0 mb)
Winds: from the SW (220 degrees) at 13 MPH (11 knots; 5.7 m/s)
Visibility: 6 or more miles (10+ km)
Ceiling: 4000 feet AGL
Clouds: scattered clouds at 1500 feet AGL
broken clouds at 4000 feet AGL
overcast cloud deck at 8800 feet AGL
Weather: no significant weather observed at this time

METAR text: LFRJ 160700Z AUTO 21011KT 9999 FEW012 BKN040 OVC094 15/12 Q1018
Conditions at: LFRJ (LANDIVISIAU (NAV, FR) observed 0700 UTC 16 June 2019
Temperature: 15.0°C (59°F)
Dewpoint: 12.0°C (54°F) [RH = 82%]
Pressure (altimeter): 30.06 inches Hg (1018.0 mb)
Winds: from the SSW (210 degrees) at 13 MPH (11 knots; 5.7 m/s)
Visibility: 6 or more miles (10+ km)
Ceiling: 4000 feet AGL
Clouds: few clouds at 1200 feet AGL
broken clouds at 4000 feet AGL
overcast cloud deck at 9400 feet AGL
Weather: no significant weather observed at this time

METAR text: LFRJ 160630Z AUTO 21011KT 9999 SCT013 SCT028 BKN037 14/12 Q1018
Conditions at: LFRJ (LANDIVISIAU (NAV, FR) observed 0630 UTC 16 June 2019
Temperature: 14.0°C (57°F)
Dewpoint: 12.0°C (54°F) [RH = 88%]
Pressure (altimeter): 30.06 inches Hg (1018.0 mb)
Winds: from the SSW (210 degrees) at 13 MPH (11 knots; 5.7 m/s)
Visibility: 6 or more miles (10+ km)
Ceiling: 3700 feet AGL
Clouds: scattered clouds at 1300 feet AGL
scattered clouds at 2800 feet AGL
broken clouds at 3700 feet AGL
Weather: no significant weather observed at this time

METAR text: LFRJ 160600Z AUTO 22012KT 9999 BKN012 OVC017 14/12 Q1018
Conditions at: LFRJ (LANDIVISIAU (NAV, FR) observed 0600 UTC 16 June 2019
Temperature: 14.0°C (57°F)
Dewpoint: 12.0°C (54°F) [RH = 88%]
Pressure (altimeter): 30.06 inches Hg (1018.0 mb)
Winds: from the SW (220 degrees) at 14 MPH (12 knots; 6.2 m/s)
Visibility: 6 or more miles (10+ km)
Ceiling: 1200 feet AGL
Clouds: broken clouds at 1200 feet AGL
overcast cloud deck at 1700 feet AGL
Weather: no significant weather observed at this time

METAR text: LFRJ 160530Z AUTO 22011KT 9999 BKN011 BKN027 OVC037 14/13 Q1017
Conditions at: LFRJ (LANDIVISIAU (NAV, FR) observed 0530 UTC 16 June 2019
Temperature: 14.0°C (57°F)
Dewpoint: 13.0°C (55°F) [RH = 94%]
Pressure (altimeter): 30.03 inches Hg (1017.0 mb)
Winds: from the SW (220 degrees) at 13 MPH (11 knots; 5.7 m/s)
Visibility: 6 or more miles (10+ km)
Ceiling: 1100 feet AGL
Clouds: broken clouds at 1100 feet AGL
broken clouds at 2700 feet AGL
overcast cloud deck at 3700 feet AGL
Weather: no significant weather observed at this time

METAR text: LFRJ 160500Z AUTO 23012KT 9999 BKN011 OVC016 14/12 Q1017
Conditions at: LFRJ (LANDIVISIAU (NAV, FR) observed 0500 UTC 16 June 2019
Temperature: 14.0°C (57°F)
Dewpoint: 12.0°C (54°F) [RH = 88%]
Pressure (altimeter): 30.03 inches Hg (1017.0 mb)
Winds: from the SW (230 degrees) at 14 MPH (12 knots; 6.2 m/s)
Visibility: 6 or more miles (10+ km)
Ceiling: 1100 feet AGL
Clouds: broken clouds at 1100 feet AGL
overcast cloud deck at 1600 feet AGL
Weather: no significant weather observed at this time

METAR text: LFRJ 160430Z AUTO 22012KT 9999 BKN009 OVC014 14/13 Q1017
Conditions at: LFRJ (LANDIVISIAU (NAV, FR) observed 0430 UTC 16 June 2019
Temperature: 14.0°C (57°F)
Dewpoint: 13.0°C (55°F) [RH = 94%]
Pressure (altimeter): 30.03 inches Hg (1017.0 mb)
Winds: from the SW (220 degrees) at 14 MPH (12 knots; 6.2 m/s)
Visibility: 6 or more miles (10+ km)
Ceiling: 900 feet AGL
Clouds: broken clouds at 900 feet AGL
overcast cloud deck at 1400 feet AGL
Weather: no significant weather observed at this time

METAR text: LFRJ 160400Z AUTO 23014KT 9999 BKN008 OVC013 14/13 Q1017
Conditions at: LFRJ (LANDIVISIAU (NAV, FR) observed 0400 UTC 16 June 2019
Temperature: 14.0°C (57°F)
Dewpoint: 13.0°C (55°F) [RH = 94%]
Pressure (altimeter): 30.03 inches Hg (1017.0 mb)
Winds: from the SW (230 degrees) at 16 MPH (14 knots; 7.2 m/s)
Visibility: 6 or more miles (10+ km)
Ceiling: 800 feet AGL
Clouds: broken clouds at 800 feet AGL
overcast cloud deck at 1300 feet AGL
Weather: no significant weather observed at this time

METAR text: LFRJ 160330Z AUTO 23013KT 9999 OVC008 14/13 Q1016
Conditions at: LFRJ (LANDIVISIAU (NAV, FR) observed 0330 UTC 16 June 2019
Temperature: 14.0°C (57°F)
Dewpoint: 13.0°C (55°F) [RH = 94%]
Pressure (altimeter): 30.00 inches Hg (1016.0 mb)
Winds: from the SW (230 degrees) at 15 MPH (13 knots; 6.7 m/s)
Visibility: 6 or more miles (10+ km)
Ceiling: 800 feet AGL
Clouds: overcast cloud deck at 800 feet AGL
Weather: no significant weather observed at this time

METAR text: LFRJ 160300Z AUTO 23013KT 9999 -RA OVC008 14/13 Q1016
Conditions at: LFRJ (LANDIVISIAU (NAV, FR) observed 0300 UTC 16 June 2019
Temperature: 14.0°C (57°F)
Dewpoint: 13.0°C (55°F) [RH = 94%]
Pressure (altimeter): 30.00 inches Hg (1016.0 mb)
Winds: from the SW (230 degrees) at 15 MPH (13 knots; 6.7 m/s)
Visibility: 6 or more miles (10+ km)
Ceiling: 800 feet AGL
Clouds: overcast cloud deck at 800 feet AGL
Weather: -RA  (light rain)

METAR text: LFRJ 160230Z AUTO 23012KT 9999 OVC008 14/13 Q1017
Conditions at: LFRJ (LANDIVISIAU (NAV, FR) observed 0230 UTC 16 June 2019
Temperature: 14.0°C (57°F)
Dewpoint: 13.0°C (55°F) [RH = 94%]
Pressure (altimeter): 30.03 inches Hg (1017.0 mb)
Winds: from the SW (230 degrees) at 14 MPH (12 knots; 6.2 m/s)
Visibility: 6 or more miles (10+ km)
Ceiling: 800 feet AGL
Clouds: overcast cloud deck at 800 feet AGL
Weather: no significant weather observed at this time

METAR text: LFRJ 160200Z AUTO 23012KT 9999 -RADZ OVC009 14/13 Q1017
Conditions at: LFRJ (LANDIVISIAU (NAV, FR) observed 0200 UTC 16 June 2019
Temperature: 14.0°C (57°F)
Dewpoint: 13.0°C (55°F) [RH = 94%]
Pressure (altimeter): 30.03 inches Hg (1017.0 mb)
Winds: from the SW (230 degrees) at 14 MPH (12 knots; 6.2 m/s)
Visibility: 6 or more miles (10+ km)
Ceiling: 900 feet AGL
Clouds: overcast cloud deck at 900 feet AGL
Weather: -RA -DZ  (light rain, light drizzle)

METAR text: LFRJ 160130Z AUTO 22010KT 9999 BKN010 OVC020 14/12 Q1017
Conditions at: LFRJ (LANDIVISIAU (NAV, FR) observed 0130 UTC 16 June 2019
Temperature: 14.0°C (57°F)
Dewpoint: 12.0°C (54°F) [RH = 88%]
Pressure (altimeter): 30.03 inches Hg (1017.0 mb)
Winds: from the SW (220 degrees) at 12 MPH (10 knots; 5.1 m/s)
Visibility: 6 or more miles (10+ km)
Ceiling: 1000 feet AGL
Clouds: broken clouds at 1000 feet AGL
overcast cloud deck at 2000 feet AGL
Weather: no significant weather observed at this time

METAR text: LFRJ 160100Z AUTO 23010KT 9999 BKN012 OVC018 14/12 Q1017
Conditions at: LFRJ (LANDIVISIAU (NAV, FR) observed 0100 UTC 16 June 2019
Temperature: 14.0°C (57°F)
Dewpoint: 12.0°C (54°F) [RH = 88%]
Pressure (altimeter): 30.03 inches Hg (1017.0 mb)
Winds: from the SW (230 degrees) at 12 MPH (10 knots; 5.1 m/s)
Visibility: 6 or more miles (10+ km)
Ceiling: 1200 feet AGL
Clouds: broken clouds at 1200 feet AGL
overcast cloud deck at 1800 feet AGL
Weather: no significant weather observed at this time

METAR text: LFRJ 160030Z AUTO 22012KT 9999 BKN010 OVC014 14/12 Q1017
Conditions at: LFRJ (LANDIVISIAU (NAV, FR) observed 0030 UTC 16 June 2019
Temperature: 14.0°C (57°F)
Dewpoint: 12.0°C (54°F) [RH = 88%]
Pressure (altimeter): 30.03 inches Hg (1017.0 mb)
Winds: from the SW (220 degrees) at 14 MPH (12 knots; 6.2 m/s)
Visibility: 6 or more miles (10+ km)
Ceiling: 1000 feet AGL
Clouds: broken clouds at 1000 feet AGL
overcast cloud deck at 1400 feet AGL
Weather: no significant weather observed at this time

METAR text: LFRJ 160000Z AUTO 23010KT 9999 BKN011 OVC021 14/12 Q1017
Conditions at: LFRJ (LANDIVISIAU (NAV, FR) observed 0000 UTC 16 June 2019
Temperature: 14.0°C (57°F)
Dewpoint: 12.0°C (54°F) [RH = 88%]
Pressure (altimeter): 30.03 inches Hg (1017.0 mb)
Winds: from the SW (230 degrees) at 12 MPH (10 knots; 5.1 m/s)
Visibility: 6 or more miles (10+ km)
Ceiling: 1100 feet AGL
Clouds: broken clouds at 1100 feet AGL
overcast cloud deck at 2100 feet AGL
Weather: no significant weather observed at this time

METAR text: LFRJ 152330Z AUTO 23013KT 9999 BKN012 OVC026 14/12 Q1017
Conditions at: LFRJ (LANDIVISIAU (NAV, FR) observed 2330 UTC 15 June 2019
Temperature: 14.0°C (57°F)
Dewpoint: 12.0°C (54°F) [RH = 88%]
Pressure (altimeter): 30.03 inches Hg (1017.0 mb)
Winds: from the SW (230 degrees) at 15 MPH (13 knots; 6.7 m/s)
Visibility: 6 or more miles (10+ km)
Ceiling: 1200 feet AGL
Clouds: broken clouds at 1200 feet AGL
overcast cloud deck at 2600 feet AGL
Weather: no significant weather observed at this time

METAR text: LFRJ 152300Z AUTO 23012KT 9999 BKN011 OVC017 14/12 Q1016
Conditions at: LFRJ (LANDIVISIAU (NAV, FR) observed 2300 UTC 15 June 2019
Temperature: 14.0°C (57°F)
Dewpoint: 12.0°C (54°F) [RH = 88%]
Pressure (altimeter): 30.00 inches Hg (1016.0 mb)
Winds: from the SW (230 degrees) at 14 MPH (12 knots; 6.2 m/s)
Visibility: 6 or more miles (10+ km)
Ceiling: 1100 feet AGL
Clouds: broken clouds at 1100 feet AGL
overcast cloud deck at 1700 feet AGL
Weather: no significant weather observed at this time

METAR text: LFRJ 152230Z AUTO 22013KT 9999 BKN010 OVC019 14/12 Q1016
Conditions at: LFRJ (LANDIVISIAU (NAV, FR) observed 2230 UTC 15 June 2019
Temperature: 14.0°C (57°F)
Dewpoint: 12.0°C (54°F) [RH = 88%]
Pressure (altimeter): 30.00 inches Hg (1016.0 mb)
Winds: from the SW (220 degrees) at 15 MPH (13 knots; 6.7 m/s)
Visibility: 6 or more miles (10+ km)
Ceiling: 1000 feet AGL
Clouds: broken clouds at 1000 feet AGL
overcast cloud deck at 1900 feet AGL
Weather: no significant weather observed at this time

METAR text: LFRJ 152200Z AUTO 23008KT 9999 BKN010 OVC015 13/12 Q1016
Conditions at: LFRJ (LANDIVISIAU (NAV, FR) observed 2200 UTC 15 June 2019
Temperature: 13.0°C (55°F)
Dewpoint: 12.0°C (54°F) [RH = 94%]
Pressure (altimeter): 30.00 inches Hg (1016.0 mb)
Winds: from the SW (230 degrees) at 9 MPH (8 knots; 4.1 m/s)
Visibility: 6 or more miles (10+ km)
Ceiling: 1000 feet AGL
Clouds: broken clouds at 1000 feet AGL
overcast cloud deck at 1500 feet AGL
Weather: no significant weather observed at this time

METAR text: LFRJ 152130Z AUTO 22011KT 9999 BKN009 OVC013 13/12 Q1016
Conditions at: LFRJ (LANDIVISIAU (NAV, FR) observed 2130 UTC 15 June 2019
Temperature: 13.0°C (55°F)
Dewpoint: 12.0°C (54°F) [RH = 94%]
Pressure (altimeter): 30.00 inches Hg (1016.0 mb)
Winds: from the SW (220 degrees) at 13 MPH (11 knots; 5.7 m/s)
Visibility: 6 or more miles (10+ km)
Ceiling: 900 feet AGL
Clouds: broken clouds at 900 feet AGL
overcast cloud deck at 1300 feet AGL
Weather: no significant weather observed at this time

METAR text: LFRJ 152100Z AUTO 24011KT 9999 OVC009 13/12 Q1016
Conditions at: LFRJ (LANDIVISIAU (NAV, FR) observed 2100 UTC 15 June 2019
Temperature: 13.0°C (55°F)
Dewpoint: 12.0°C (54°F) [RH = 94%]
Pressure (altimeter): 30.00 inches Hg (1016.0 mb)
Winds: from the WSW (240 degrees) at 13 MPH (11 knots; 5.7 m/s)
Visibility: 6 or more miles (10+ km)
Ceiling: 900 feet AGL
Clouds: overcast cloud deck at 900 feet AGL
Weather: no significant weather observed at this time

METAR text: LFRJ 152030Z AUTO 23011KT 9999 BKN012 BKN120 13/12 Q1016
Conditions at: LFRJ (LANDIVISIAU (NAV, FR) observed 2030 UTC 15 June 2019
Temperature: 13.0°C (55°F)
Dewpoint: 12.0°C (54°F) [RH = 94%]
Pressure (altimeter): 30.00 inches Hg (1016.0 mb)
Winds: from the SW (230 degrees) at 13 MPH (11 knots; 5.7 m/s)
Visibility: 6 or more miles (10+ km)
Ceiling: 1200 feet AGL
Clouds: broken clouds at 1200 feet AGL
broken clouds at 12000 feet AGL
Weather: no significant weather observed at this time

METAR text: LFRJ 152000Z AUTO 23011KT 9999 FEW008 BKN013 OVC019 14/12 Q1015
Conditions at: LFRJ (LANDIVISIAU (NAV, FR) observed 2000 UTC 15 June 2019
Temperature: 14.0°C (57°F)
Dewpoint: 12.0°C (54°F) [RH = 88%]
Pressure (altimeter): 29.97 inches Hg (1015.0 mb)
Winds: from the SW (230 degrees) at 13 MPH (11 knots; 5.7 m/s)
Visibility: 6 or more miles (10+ km)
Ceiling: 1300 feet AGL
Clouds: few clouds at 800 feet AGL
broken clouds at 1300 feet AGL
overcast cloud deck at 1900 feet AGL
Weather: no significant weather observed at this time

METAR text: LFRJ 151930Z AUTO 24011KT 9999 BKN012 BKN021 14/13 Q1015
Conditions at: LFRJ (LANDIVISIAU (NAV, FR) observed 1930 UTC 15 June 2019
Temperature: 14.0°C (57°F)
Dewpoint: 13.0°C (55°F) [RH = 94%]
Pressure (altimeter): 29.97 inches Hg (1015.0 mb)
Winds: from the WSW (240 degrees) at 13 MPH (11 knots; 5.7 m/s)
Visibility: 6 or more miles (10+ km)
Ceiling: 1200 feet AGL
Clouds: broken clouds at 1200 feet AGL
broken clouds at 2100 feet AGL
Weather: no significant weather observed at this time

METAR text: LFRJ 151900Z AUTO 25015KT 9999 BKN011 OVC023 14/13 Q1015
Conditions at: LFRJ (LANDIVISIAU (NAV, FR) observed 1900 UTC 15 June 2019
Temperature: 14.0°C (57°F)
Dewpoint: 13.0°C (55°F) [RH = 94%]
Pressure (altimeter): 29.97 inches Hg (1015.0 mb)
Winds: from the WSW (250 degrees) at 17 MPH (15 knots; 7.7 m/s)
Visibility: 6 or more miles (10+ km)
Ceiling: 1100 feet AGL
Clouds: broken clouds at 1100 feet AGL
overcast cloud deck at 2300 feet AGL
Weather: no significant weather observed at this time

METAR text: LFRJ 151830Z AUTO 24013KT 9999 BKN007 OVC032 14/14 Q1015
Conditions at: LFRJ (LANDIVISIAU (NAV, FR) observed 1830 UTC 15 June 2019
Temperature: 14.0°C (57°F)
Dewpoint: 14.0°C (57°F) [RH = 100%]
Pressure (altimeter): 29.97 inches Hg (1015.0 mb)
Winds: from the WSW (240 degrees) at 15 MPH (13 knots; 6.7 m/s)
Visibility: 6 or more miles (10+ km)
Ceiling: 700 feet AGL
Clouds: broken clouds at 700 feet AGL
overcast cloud deck at 3200 feet AGL
Weather: no significant weather observed at this time

METAR text: LFRJ 151800Z AUTO 23012KT 8000 2200 DZ BKN009 BKN019 BKN032 14/13 Q1015
Conditions at: LFRJ (LANDIVISIAU (NAV, FR) observed 1800 UTC 15 June 2019
Temperature: 14.0°C (57°F)
Dewpoint: 13.0°C (55°F) [RH = 94%]
Pressure (altimeter): 29.97 inches Hg (1015.0 mb)
Winds: from the SW (230 degrees) at 14 MPH (12 knots; 6.2 m/s)
Visibility: 5 miles ( 8 km)
Ceiling: 900 feet AGL
Clouds: broken clouds at 900 feet AGL
broken clouds at 1900 feet AGL
broken clouds at 3200 feet AGL
Weather: DZ  (moderate drizzle)

METAR text: LFRJ 151730Z AUTO 23012KT 9999 2500 BKN010/// OVC019/// ///TCU 14/13 Q1015
Conditions at: LFRJ (LANDIVISIAU (NAV, FR) observed 1730 UTC 15 June 2019
Temperature: 14.0°C (57°F)
Dewpoint: 13.0°C (55°F) [RH = 94%]
Pressure (altimeter): 29.97 inches Hg (1015.0 mb)
Winds: from the SW (230 degrees) at 14 MPH (12 knots; 6.2 m/s)
Visibility: 6 or more miles (10+ km)
Ceiling: 1000 feet AGL
Clouds: broken clouds at 1000 feet AGL
overcast cloud deck at 1900 feet AGL
Weather: no significant weather observed at this time

METAR text: LFRJ 151700Z AUTO 24010KT 6000 -RA BKN005/// OVC010/// ///TCU 14/13 Q1015
Conditions at: LFRJ (LANDIVISIAU (NAV, FR) observed 1700 UTC 15 June 2019
Temperature: 14.0°C (57°F)
Dewpoint: 13.0°C (55°F) [RH = 94%]
Pressure (altimeter): 29.97 inches Hg (1015.0 mb)
Winds: from the WSW (240 degrees) at 12 MPH (10 knots; 5.1 m/s)
Visibility: 4 miles ( 6 km)
Ceiling: 500 feet AGL
Clouds: broken clouds at 500 feet AGL
overcast cloud deck at 1000 feet AGL
Weather: -RA  (light rain)

METAR text: LFRJ 151630Z AUTO 23012KT 4500 -RA BR BKN007/// BKN013/// BKN035/// ///TCU 14/13 Q1014
Conditions at: LFRJ (LANDIVISIAU (NAV, FR) observed 1630 UTC 15 June 2019
Temperature: 14.0°C (57°F)
Dewpoint: 13.0°C (55°F) [RH = 94%]
Pressure (altimeter): 29.94 inches Hg (1014.0 mb)
Winds: from the SW (230 degrees) at 14 MPH (12 knots; 6.2 m/s)
Visibility: 2.80 miles (4.51 km)
Ceiling: 700 feet AGL
Clouds: broken clouds at 700 feet AGL
broken clouds at 1300 feet AGL
broken clouds at 3500 feet AGL
Weather: -RA BR  (light rain, mist)

METAR text: LFRJ 151600Z AUTO 24014KT 9999 FEW016/// BKN023/// BKN034/// ///TCU 15/12 Q1014
Conditions at: LFRJ (LANDIVISIAU (NAV, FR) observed 1600 UTC 15 June 2019
Temperature: 15.0°C (59°F)
Dewpoint: 12.0°C (54°F) [RH = 82%]
Pressure (altimeter): 29.94 inches Hg (1014.0 mb)
Winds: from the WSW (240 degrees) at 16 MPH (14 knots; 7.2 m/s)
Visibility: 6 or more miles (10+ km)
Ceiling: 2300 feet AGL
Clouds: few clouds at 1600 feet AGL
broken clouds at 2300 feet AGL
broken clouds at 3400 feet AGL
Weather: no significant weather observed at this time

METAR text: LFRJ 151530Z AUTO 23015KT 9999 FEW017 SCT038 OVC084 16/12 Q1014
Conditions at: LFRJ (LANDIVISIAU (NAV, FR) observed 1530 UTC 15 June 2019
Temperature: 16.0°C (61°F)
Dewpoint: 12.0°C (54°F) [RH = 77%]
Pressure (altimeter): 29.94 inches Hg (1014.0 mb)
Winds: from the SW (230 degrees) at 17 MPH (15 knots; 7.7 m/s)
Visibility: 6 or more miles (10+ km)
Ceiling: 8400 feet AGL
Clouds: few clouds at 1700 feet AGL
scattered clouds at 3800 feet AGL
overcast cloud deck at 8400 feet AGL
Weather: no significant weather observed at this time

METAR text: LFRJ 151500Z AUTO 23017KT 9999 SCT022 BKN041 BKN088 17/12 Q1014
Conditions at: LFRJ (LANDIVISIAU (NAV, FR) observed 1500 UTC 15 June 2019
Temperature: 17.0°C (63°F)
Dewpoint: 12.0°C (54°F) [RH = 72%]
Pressure (altimeter): 29.94 inches Hg (1014.0 mb)
Winds: from the SW (230 degrees) at 20 MPH (17 knots; 8.7 m/s)
Visibility: 6 or more miles (10+ km)
Ceiling: 4100 feet AGL
Clouds: scattered clouds at 2200 feet AGL
broken clouds at 4100 feet AGL
broken clouds at 8800 feet AGL
Weather: no significant weather observed at this time

METAR text: LFRJ 151430Z AUTO 22017KT 9999 SCT019 SCT028 BKN034 17/12 Q1014
Conditions at: LFRJ (LANDIVISIAU (NAV, FR) observed 1430 UTC 15 June 2019
Temperature: 17.0°C (63°F)
Dewpoint: 12.0°C (54°F) [RH = 72%]
Pressure (altimeter): 29.94 inches Hg (1014.0 mb)
Winds: from the SW (220 degrees) at 20 MPH (17 knots; 8.7 m/s)
Visibility: 6 or more miles (10+ km)
Ceiling: 3400 feet AGL
Clouds: scattered clouds at 1900 feet AGL
scattered clouds at 2800 feet AGL
broken clouds at 3400 feet AGL
Weather: no significant weather observed at this time

METAR text: LFRJ 151400Z AUTO 23017KT 9999 BKN020 BKN027 BKN033 17/13 Q1014
Conditions at: LFRJ (LANDIVISIAU (NAV, FR) observed 1400 UTC 15 June 2019
Temperature: 17.0°C (63°F)
Dewpoint: 13.0°C (55°F) [RH = 77%]
Pressure (altimeter): 29.94 inches Hg (1014.0 mb)
Winds: from the SW (230 degrees) at 20 MPH (17 knots; 8.7 m/s)
Visibility: 6 or more miles (10+ km)
Ceiling: 2000 feet AGL
Clouds: broken clouds at 2000 feet AGL
broken clouds at 2700 feet AGL
broken clouds at 3300 feet AGL
Weather: no significant weather observed at this time

METAR text: LFRJ 151330Z AUTO 24017KT 9999 BKN016/// BKN024/// BKN030/// ///CB 17/13 Q1014
Conditions at: LFRJ (LANDIVISIAU (NAV, FR) observed 1330 UTC 15 June 2019
Temperature: 17.0°C (63°F)
Dewpoint: 13.0°C (55°F) [RH = 77%]
Pressure (altimeter): 29.94 inches Hg (1014.0 mb)
Winds: from the WSW (240 degrees) at 20 MPH (17 knots; 8.7 m/s)
Visibility: 6 or more miles (10+ km)
Ceiling: 1600 feet AGL
Clouds: broken clouds at 1600 feet AGL
broken clouds at 2400 feet AGL
broken clouds at 3000 feet AGL
Weather: no significant weather observed at this time

METAR text: LFRJ 151300Z AUTO 23017KT 9999 SCT013 BKN026 BKN032 15/13 Q1013
Conditions at: LFRJ (LANDIVISIAU (NAV, FR) observed 1300 UTC 15 June 2019
Temperature: 15.0°C (59°F)
Dewpoint: 13.0°C (55°F) [RH = 88%]
Pressure (altimeter): 29.91 inches Hg (1013.0 mb)
Winds: from the SW (230 degrees) at 20 MPH (17 knots; 8.7 m/s)
Visibility: 6 or more miles (10+ km)
Ceiling: 2600 feet AGL
Clouds: scattered clouds at 1300 feet AGL
broken clouds at 2600 feet AGL
broken clouds at 3200 feet AGL
Weather: no significant weather observed at this time

METAR text: LFRJ 151230Z AUTO 24014KT 9999 -RA BKN008/// BKN016/// BKN021/// ///CB 14/13 Q1013
Conditions at: LFRJ (LANDIVISIAU (NAV, FR) observed 1230 UTC 15 June 2019
Temperature: 14.0°C (57°F)
Dewpoint: 13.0°C (55°F) [RH = 94%]
Pressure (altimeter): 29.91 inches Hg (1013.0 mb)
Winds: from the WSW (240 degrees) at 16 MPH (14 knots; 7.2 m/s)
Visibility: 6 or more miles (10+ km)
Ceiling: 800 feet AGL
Clouds: broken clouds at 800 feet AGL
broken clouds at 1600 feet AGL
broken clouds at 2100 feet AGL
Weather: -RA  (light rain)

METAR text: LFRJ 151200Z AUTO 24011KT 210V270 1400 0900 R26/1300D R08/1700D RA BCFG BKN010/// BKN035/// BKN050/// ///CB 14/13 Q1013 BECMG 9999 NSW BKN025
Conditions at: LFRJ (LANDIVISIAU (NAV, FR) observed 1200 UTC 15 June 2019
Temperature: 14.0°C (57°F)
Dewpoint: 13.0°C (55°F) [RH = 94%]
Pressure (altimeter): 29.91 inches Hg (1013.0 mb)
Winds: from the WSW (240 degrees) at 13 MPH (11 knots; 5.7 m/s)
Visibility: 0.87 miles (1.40 km)
Ceiling: 1000 feet AGL
Clouds: broken clouds at 1000 feet AGL
broken clouds at 3500 feet AGL
broken clouds at 5000 feet AGL
Weather: BCFG RA  (patches of fog, moderate rain)

METAR text: LFRJ 151130Z AUTO 23015KT 9999 -RA BKN015/// BKN024/// BKN030/// ///TCU 15/13 Q1013 TEMPO RA BECMG 22010G20KT BKN025
Conditions at: LFRJ (LANDIVISIAU (NAV, FR) observed 1130 UTC 15 June 2019
Temperature: 15.0°C (59°F)
Dewpoint: 13.0°C (55°F) [RH = 88%]
Pressure (altimeter): 29.91 inches Hg (1013.0 mb)
Winds: from the SW (230 degrees) at 17 MPH (15 knots; 7.7 m/s)
Visibility: 6 or more miles (10+ km)
Ceiling: 1500 feet AGL
Clouds: broken clouds at 1500 feet AGL
broken clouds at 2400 feet AGL
broken clouds at 3000 feet AGL
Weather: -RA  (light rain)

METAR text: LFRJ 151100Z AUTO 21013KT 9999 BKN013/// BKN018/// OVC056/// ///TCU 16/13 Q1013 TEMPO RA BECMG BKN025
Conditions at: LFRJ (LANDIVISIAU (NAV, FR) observed 1100 UTC 15 June 2019
Temperature: 16.0°C (61°F)
Dewpoint: 13.0°C (55°F) [RH = 82%]
Pressure (altimeter): 29.91 inches Hg (1013.0 mb)
Winds: from the SSW (210 degrees) at 15 MPH (13 knots; 6.7 m/s)
Visibility: 6 or more miles (10+ km)
Ceiling: 1300 feet AGL
Clouds: broken clouds at 1300 feet AGL
broken clouds at 1800 feet AGL
overcast cloud deck at 5600 feet AGL
Weather: no significant weather observed at this time

METAR text: LFRJ 151030Z AUTO 22013KT 9999 BKN012/// BKN018/// BKN026/// 16/13 Q1013 TEMPO RA BECMG BKN025
Conditions at: LFRJ (LANDIVISIAU (NAV, FR) observed 1030 UTC 15 June 2019
Temperature: 16.0°C (61°F)
Dewpoint: 13.0°C (55°F) [RH = 82%]
Pressure (altimeter): 29.91 inches Hg (1013.0 mb)
Winds: from the SW (220 degrees) at 15 MPH (13 knots; 6.7 m/s)
Visibility: 6 or more miles (10+ km)
Ceiling: 1200 feet AGL
Clouds: broken clouds at 1200 feet AGL
broken clouds at 1800 feet AGL
broken clouds at 2600 feet AGL
Weather: no significant weather observed at this time

METAR text: LFRJ 151000Z AUTO 23014KT 9999 OVC010/// ///TCU 15/13 Q1013 TEMPO RA BECMG BKN025
Conditions at: LFRJ (LANDIVISIAU (NAV, FR) observed 1000 UTC 15 June 2019
Temperature: 15.0°C (59°F)
Dewpoint: 13.0°C (55°F) [RH = 88%]
Pressure (altimeter): 29.91 inches Hg (1013.0 mb)
Winds: from the SW (230 degrees) at 16 MPH (14 knots; 7.2 m/s)
Visibility: 6 or more miles (10+ km)
Ceiling: 1000 feet AGL
Clouds: overcast cloud deck at 1000 feet AGL
Weather: no significant weather observed at this time

METAR text: LFRJ 150930Z AUTO 23013KT 200V260 9999 BKN008/// BKN014/// OVC029/// ///TCU 14/13 Q1013
Conditions at: LFRJ (LANDIVISIAU (NAV, FR) observed 0930 UTC 15 June 2019
Temperature: 14.0°C (57°F)
Dewpoint: 13.0°C (55°F) [RH = 94%]
Pressure (altimeter): 29.91 inches Hg (1013.0 mb)
Winds: from the SW (230 degrees) at 15 MPH (13 knots; 6.7 m/s)
Visibility: 6 or more miles (10+ km)
Ceiling: 800 feet AGL
Clouds: broken clouds at 800 feet AGL
broken clouds at 1400 feet AGL
overcast cloud deck at 2900 feet AGL
Weather: no significant weather observed at this time

METAR text: LFRJ 150900Z AUTO 22013KT 9999 BKN008/// BKN012/// OVC034/// ///CB 14/13 Q1013
Conditions at: LFRJ (LANDIVISIAU (NAV, FR) observed 0900 UTC 15 June 2019
Temperature: 14.0°C (57°F)
Dewpoint: 13.0°C (55°F) [RH = 94%]
Pressure (altimeter): 29.91 inches Hg (1013.0 mb)
Winds: from the SW (220 degrees) at 15 MPH (13 knots; 6.7 m/s)
Visibility: 6 or more miles (10+ km)
Ceiling: 800 feet AGL
Clouds: broken clouds at 800 feet AGL
broken clouds at 1200 feet AGL
overcast cloud deck at 3400 feet AGL
Weather: no significant weather observed at this time

METAR text: LFRJ 150830Z AUTO 22013KT 9999 BKN009/// OVC035/// ///CB 13/13 Q1013
Conditions at: LFRJ (LANDIVISIAU (NAV, FR) observed 0830 UTC 15 June 2019
Temperature: 13.0°C (55°F)
Dewpoint: 13.0°C (55°F) [RH = 100%]
Pressure (altimeter): 29.91 inches Hg (1013.0 mb)
Winds: from the SW (220 degrees) at 15 MPH (13 knots; 6.7 m/s)
Visibility: 6 or more miles (10+ km)
Ceiling: 900 feet AGL
Clouds: broken clouds at 900 feet AGL
overcast cloud deck at 3500 feet AGL
Weather: no significant weather observed at this time

METAR text: LFRJ 150800Z AUTO 23014KT 9999 OVC007/// ///TCU 13/12 Q1012
Conditions at: LFRJ (LANDIVISIAU (NAV, FR) observed 0800 UTC 15 June 2019
Temperature: 13.0°C (55°F)
Dewpoint: 12.0°C (54°F) [RH = 94%]
Pressure (altimeter): 29.88 inches Hg (1012.0 mb)
Winds: from the SW (230 degrees) at 16 MPH (14 knots; 7.2 m/s)
Visibility: 6 or more miles (10+ km)
Ceiling: 700 feet AGL
Clouds: overcast cloud deck at 700 feet AGL
Weather: no significant weather observed at this time

METAR text: LFRJ 150730Z AUTO 22012KT 9999 OVC006 13/12 Q1012
Conditions at: LFRJ (LANDIVISIAU (NAV, FR) observed 0730 UTC 15 June 2019
Temperature: 13.0°C (55°F)
Dewpoint: 12.0°C (54°F) [RH = 94%]
Pressure (altimeter): 29.88 inches Hg (1012.0 mb)
Winds: from the SW (220 degrees) at 14 MPH (12 knots; 6.2 m/s)
Visibility: 6 or more miles (10+ km)
Ceiling: 600 feet AGL
Clouds: overcast cloud deck at 600 feet AGL
Weather: no significant weather observed at this time

METAR text: LFRJ 150700Z AUTO 21011KT 3000 -RA BR OVC006 12/12 Q1012
Conditions at: LFRJ (LANDIVISIAU (NAV, FR) observed 0700 UTC 15 June 2019
Temperature: 12.0°C (54°F)
Dewpoint: 12.0°C (54°F) [RH = 100%]
Pressure (altimeter): 29.88 inches Hg (1012.0 mb)
Winds: from the SSW (210 degrees) at 13 MPH (11 knots; 5.7 m/s)
Visibility: 1.86 miles (2.99 km)
Ceiling: 600 feet AGL
Clouds: overcast cloud deck at 600 feet AGL
Weather: -RA BR  (light rain, mist)

METAR text: LFRJ 150630Z AUTO 21011KT 9999 -RADZ OVC007 12/12 Q1012
Conditions at: LFRJ (LANDIVISIAU (NAV, FR) observed 0630 UTC 15 June 2019
Temperature: 12.0°C (54°F)
Dewpoint: 12.0°C (54°F) [RH = 100%]
Pressure (altimeter): 29.88 inches Hg (1012.0 mb)
Winds: from the SSW (210 degrees) at 13 MPH (11 knots; 5.7 m/s)
Visibility: 6 or more miles (10+ km)
Ceiling: 700 feet AGL
Clouds: overcast cloud deck at 700 feet AGL
Weather: -RA -DZ  (light rain, light drizzle)

METAR text: LFRJ 150600Z AUTO 21012KT 8000 -RA BKN008 OVC012 12/11 Q1012
Conditions at: LFRJ (LANDIVISIAU (NAV, FR) observed 0600 UTC 15 June 2019
Temperature: 12.0°C (54°F)
Dewpoint: 11.0°C (52°F) [RH = 94%]
Pressure (altimeter): 29.88 inches Hg (1012.0 mb)
Winds: from the SSW (210 degrees) at 14 MPH (12 knots; 6.2 m/s)
Visibility: 5 miles ( 8 km)
Ceiling: 800 feet AGL
Clouds: broken clouds at 800 feet AGL
overcast cloud deck at 1200 feet AGL
Weather: -RA  (light rain)

METAR text: LFRJ 150530Z AUTO 21011KT 9999 -RA BKN011 BKN016 BKN022 12/11 Q1012
Conditions at: LFRJ (LANDIVISIAU (NAV, FR) observed 0530 UTC 15 June 2019
Temperature: 12.0°C (54°F)
Dewpoint: 11.0°C (52°F) [RH = 94%]
Pressure (altimeter): 29.88 inches Hg (1012.0 mb)
Winds: from the SSW (210 degrees) at 13 MPH (11 knots; 5.7 m/s)
Visibility: 6 or more miles (10+ km)
Ceiling: 1100 feet AGL
Clouds: broken clouds at 1100 feet AGL
broken clouds at 1600 feet AGL
broken clouds at 2200 feet AGL
Weather: -RA  (light rain)